createdAt,value
2023-01-03T00:04:47.442Z,1.66
2023-01-03T00:19:32.929Z,1.51
2023-01-03T00:34:25.226Z,1.70
2023-01-03T01:04:08.752Z,1.30
2023-01-03T01:33:50.746Z,1.79
2023-01-03T01:48:42.208Z,1.99
2023-01-03T02:03:34.325Z,1.94
2023-01-03T02:18:43.666Z,1.98
2023-01-03T02:49:02.380Z,1.80
2023-01-03T03:03:57.388Z,2.11
2023-01-03T03:18:56.530Z,2.49
2023-01-03T04:04:36.907Z,2.12
2023-01-03T04:19:27.627Z,1.82
2023-01-03T04:34:17.993Z,2.11
2023-01-03T04:49:08.416Z,3.04
2023-01-03T05:03:59.157Z,2.40
2023-01-03T05:33:52.362Z,2.50
2023-01-03T05:48:42.386Z,2.80
2023-01-03T06:03:33.292Z,2.44
2023-01-03T06:18:24.244Z,2.54
2023-01-03T06:33:14.981Z,2.50
2023-01-03T06:48:23.998Z,3.00
2023-01-03T07:03:11.421Z,3.37
2023-01-03T07:17:59.355Z,2.61
2023-01-03T07:32:50.320Z,2.60
2023-01-03T07:47:47.351Z,3.17
2023-01-03T08:02:41.180Z,3.92
2023-01-03T08:17:31.818Z,4.09
2023-01-03T08:32:22.744Z,4.04
2023-01-03T08:47:14.231Z,3.88
2023-01-03T09:02:05.202Z,3.88
2023-01-03T09:17:01.087Z,4.23
2023-01-03T09:31:47.244Z,4.74
2023-01-03T10:01:52.346Z,4.02
2023-01-03T10:16:49.220Z,4.29
2023-01-03T10:32:06.279Z,3.18
2023-01-03T10:47:05.338Z,2.08
2023-01-03T11:02:02.941Z,2.40
2023-01-03T11:16:56.222Z,2.61
2023-01-03T12:03:04.838Z,2.90
2023-01-03T12:18:01.453Z,1.69
2023-01-03T12:32:58.936Z,1.80
2023-01-03T12:48:11.637Z,1.46
2023-01-03T13:03:39.394Z,1.27
2023-01-03T13:18:35.523Z,1.10
2023-01-03T13:33:26.841Z,1.06
2023-01-03T13:48:18.617Z,1.10
2023-01-03T14:03:15.022Z,1.22
2023-01-03T14:18:14.254Z,1.03
2023-01-03T14:33:18.086Z,1.38
2023-01-03T14:48:12.531Z,1.24
2023-01-03T15:03:03.305Z,1.03
2023-01-03T15:17:54.135Z,1.06
2023-01-03T15:33:03.468Z,1.20
2023-01-03T15:47:59.138Z,1.20
2023-01-03T16:02:49.437Z,1.24
2023-01-03T16:17:39.273Z,1.88
2023-01-03T16:32:30.223Z,3.20
2023-01-03T16:47:23.045Z,3.22
2023-01-03T17:02:15.665Z,6.68
2023-01-03T17:17:06.101Z,5.39
2023-01-03T17:31:56.794Z,4.56
2023-01-03T17:47:05.691Z,4.23
2023-01-03T18:02:00.708Z,5.61
2023-01-03T18:16:55.019Z,7.33
2023-01-03T18:31:41.249Z,7.09
2023-01-03T18:46:32.783Z,8.30
2023-01-03T19:16:31.871Z,5.83
2023-01-03T19:31:27.016Z,5.51
2023-01-03T19:46:19.407Z,5.72
2023-01-03T20:01:09.919Z,5.38
2023-01-03T20:16:01.101Z,4.50
2023-01-03T20:30:51.678Z,4.28
2023-01-03T20:45:42.464Z,4.80
2023-01-03T21:00:32.644Z,7.59
2023-01-03T21:15:28.596Z,5.22
2023-01-03T21:30:21.443Z,5.02
2023-01-03T21:45:11.338Z,4.98
2023-01-03T22:14:49.410Z,5.16
2023-01-03T22:29:39.848Z,5.03
2023-01-03T22:44:29.585Z,4.96
2023-01-03T22:59:20.524Z,4.57
2023-01-03T23:14:11.803Z,5.57
2023-01-03T23:29:02.580Z,4.30
2023-01-03T23:43:53.427Z,3.57
